sensor_id;sensor_type;location;lat;lon;timestamp;P1;durP1;ratioP1;P2;durP2;ratioP2
41446;SDS011;27185;52.040;4.490;2023-02-14T00:01:08;44.92;;;25.95;;
41446;SDS011;27185;52.040;4.490;2023-02-14T00:03:56;46.72;;;26.45;;
41446;SDS011;27185;52.040;4.490;2023-02-14T00:06:44;49.08;;;26.13;;
41446;SDS011;27185;52.040;4.490;2023-02-14T00:09:30;42.88;;;24.63;;
41446;SDS011;27185;52.040;4.490;2023-02-14T00:12:16;44.03;;;25.27;;
41446;SDS011;27185;52.040;4.490;2023-02-14T00:15:02;46.33;;;25.98;;
41446;SDS011;27185;52.040;4.490;2023-02-14T00:18:06;41.97;;;23.88;;
41446;SDS011;27185;52.040;4.490;2023-02-14T00:20:51;44.42;;;25.10;;
41446;SDS011;27185;52.040;4.490;2023-02-14T00:23:37;43.03;;;24.45;;
41446;SDS011;27185;52.040;4.490;2023-02-14T00:26:22;45.47;;;25.17;;
41446;SDS011;27185;52.040;4.490;2023-02-14T00:29:09;45.75;;;24.58;;
41446;SDS011;27185;52.040;4.490;2023-02-14T00:34:42;40.30;;;22.08;;
41446;SDS011;27185;52.040;4.490;2023-02-14T00:37:27;40.75;;;23.98;;
41446;SDS011;27185;52.040;4.490;2023-02-14T00:40:13;42.75;;;24.92;;
41446;SDS011;27185;52.040;4.490;2023-02-14T00:42:59;44.95;;;24.27;;
41446;SDS011;27185;52.040;4.490;2023-02-14T00:45:45;42.03;;;24.90;;
41446;SDS011;27185;52.040;4.490;2023-02-14T00:48:30;40.90;;;24.02;;
41446;SDS011;27185;52.040;4.490;2023-02-14T00:51:16;45.50;;;25.00;;
41446;SDS011;27185;52.040;4.490;2023-02-14T00:54:02;46.65;;;25.50;;
41446;SDS011;27185;52.040;4.490;2023-02-14T00:56:48;43.33;;;24.92;;
41446;SDS011;27185;52.040;4.490;2023-02-14T00:59:34;43.67;;;24.30;;
41446;SDS011;27185;52.040;4.490;2023-02-14T01:02:19;46.47;;;24.52;;
41446;SDS011;27185;52.040;4.490;2023-02-14T01:05:05;46.13;;;24.95;;
41446;SDS011;27185;52.040;4.490;2023-02-14T01:07:51;44.75;;;26.17;;
41446;SDS011;27185;52.040;4.490;2023-02-14T01:10:36;41.13;;;23.67;;
41446;SDS011;27185;52.040;4.490;2023-02-14T01:13:22;41.63;;;23.88;;
41446;SDS011;27185;52.040;4.490;2023-02-14T01:16:09;43.72;;;22.98;;
41446;SDS011;27185;52.040;4.490;2023-02-14T01:18:57;40.55;;;22.88;;
41446;SDS011;27185;52.040;4.490;2023-02-14T01:21:44;39.95;;;21.75;;
41446;SDS011;27185;52.040;4.490;2023-02-14T01:24:30;42.15;;;24.15;;
41446;SDS011;27185;52.040;4.490;2023-02-14T01:27:15;42.70;;;22.95;;
41446;SDS011;27185;52.040;4.490;2023-02-14T01:30:01;45.38;;;23.70;;
41446;SDS011;27185;52.040;4.490;2023-02-14T01:32:47;44.60;;;23.60;;
41446;SDS011;27185;52.040;4.490;2023-02-14T01:35:36;38.95;;;22.02;;
41446;SDS011;27185;52.040;4.490;2023-02-14T01:38:22;39.15;;;21.98;;
41446;SDS011;27185;52.040;4.490;2023-02-14T01:41:08;39.38;;;22.48;;
41446;SDS011;27185;52.040;4.490;2023-02-14T01:44:01;42.08;;;22.52;;
41446;SDS011;27185;52.040;4.490;2023-02-14T01:47:07;38.03;;;21.92;;
41446;SDS011;27185;52.040;4.490;2023-02-14T01:49:57;43.70;;;24.40;;
41446;SDS011;27185;52.040;4.490;2023-02-14T01:52:54;39.90;;;22.55;;
41446;SDS011;27185;52.040;4.490;2023-02-14T01:55:45;42.65;;;23.50;;
41446;SDS011;27185;52.040;4.490;2023-02-14T01:58:34;44.65;;;23.75;;
41446;SDS011;27185;52.040;4.490;2023-02-14T02:01:24;42.78;;;23.48;;
41446;SDS011;27185;52.040;4.490;2023-02-14T02:04:18;37.22;;;22.25;;
41446;SDS011;27185;52.040;4.490;2023-02-14T02:07:09;42.13;;;24.15;;
41446;SDS011;27185;52.040;4.490;2023-02-14T02:10:00;42.50;;;24.15;;
41446;SDS011;27185;52.040;4.490;2023-02-14T02:12:49;43.33;;;24.20;;
41446;SDS011;27185;52.040;4.490;2023-02-14T02:15:40;44.60;;;24.45;;
41446;SDS011;27185;52.040;4.490;2023-02-14T02:21:41;43.85;;;24.05;;
41446;SDS011;27185;52.040;4.490;2023-02-14T02:24:59;45.60;;;24.40;;
41446;SDS011;27185;52.040;4.490;2023-02-14T02:40:14;41.53;;;24.42;;
41446;SDS011;27185;52.040;4.490;2023-02-14T02:43:33;46.63;;;25.45;;
41446;SDS011;27185;52.040;4.490;2023-02-14T02:53:05;45.58;;;23.65;;
41446;SDS011;27185;52.040;4.490;2023-02-14T02:56:02;41.92;;;23.33;;
41446;SDS011;27185;52.040;4.490;2023-02-14T03:02:15;40.63;;;22.52;;
41446;SDS011;27185;52.040;4.490;2023-02-14T03:05:05;42.70;;;23.05;;
41446;SDS011;27185;52.040;4.490;2023-02-14T03:07:51;42.95;;;23.58;;
41446;SDS011;27185;52.040;4.490;2023-02-14T03:10:37;47.08;;;24.23;;
41446;SDS011;27185;52.040;4.490;2023-02-14T03:13:29;42.42;;;23.38;;
41446;SDS011;27185;52.040;4.490;2023-02-14T03:23:08;44.28;;;23.70;;
41446;SDS011;27185;52.040;4.490;2023-02-14T03:32:33;40.83;;;22.75;;
41446;SDS011;27185;52.040;4.490;2023-02-14T03:35:28;42.13;;;22.77;;
41446;SDS011;27185;52.040;4.490;2023-02-14T03:38:54;40.25;;;21.90;;
41446;SDS011;27185;52.040;4.490;2023-02-14T03:41:53;40.83;;;22.33;;
41446;SDS011;27185;52.040;4.490;2023-02-14T03:44:48;39.70;;;21.27;;
41446;SDS011;27185;52.040;4.490;2023-02-14T03:47:37;42.67;;;23.17;;
41446;SDS011;27185;52.040;4.490;2023-02-14T03:50:26;47.25;;;23.05;;
41446;SDS011;27185;52.040;4.490;2023-02-14T03:53:14;42.78;;;23.70;;
41446;SDS011;27185;52.040;4.490;2023-02-14T03:56:09;38.75;;;22.40;;
41446;SDS011;27185;52.040;4.490;2023-02-14T03:59:14;44.63;;;23.85;;
41446;SDS011;27185;52.040;4.490;2023-02-14T04:02:10;47.42;;;24.00;;
41446;SDS011;27185;52.040;4.490;2023-02-14T04:05:25;50.28;;;23.92;;
41446;SDS011;27185;52.040;4.490;2023-02-14T04:08:12;42.15;;;22.02;;
41446;SDS011;27185;52.040;4.490;2023-02-14T04:11:08;42.75;;;22.75;;
41446;SDS011;27185;52.040;4.490;2023-02-14T04:13:53;47.33;;;25.25;;
41446;SDS011;27185;52.040;4.490;2023-02-14T04:16:39;49.50;;;24.13;;
41446;SDS011;27185;52.040;4.490;2023-02-14T04:19:43;45.85;;;24.02;;
41446;SDS011;27185;52.040;4.490;2023-02-14T04:22:29;46.55;;;26.80;;
41446;SDS011;27185;52.040;4.490;2023-02-14T04:25:14;50.15;;;24.83;;
41446;SDS011;27185;52.040;4.490;2023-02-14T04:28:00;49.50;;;25.48;;
41446;SDS011;27185;52.040;4.490;2023-02-14T04:30:46;47.88;;;25.63;;
41446;SDS011;27185;52.040;4.490;2023-02-14T04:33:31;49.83;;;25.00;;
41446;SDS011;27185;52.040;4.490;2023-02-14T04:36:17;46.33;;;24.95;;
41446;SDS011;27185;52.040;4.490;2023-02-14T04:39:03;49.22;;;24.83;;
41446;SDS011;27185;52.040;4.490;2023-02-14T04:41:49;48.20;;;26.58;;
41446;SDS011;27185;52.040;4.490;2023-02-14T04:44:34;47.35;;;24.67;;
41446;SDS011;27185;52.040;4.490;2023-02-14T04:47:22;47.03;;;26.00;;
41446;SDS011;27185;52.040;4.490;2023-02-14T04:50:07;45.47;;;24.25;;
41446;SDS011;27185;52.040;4.490;2023-02-14T04:52:53;47.13;;;25.60;;
41446;SDS011;27185;52.040;4.490;2023-02-14T04:55:39;50.28;;;26.13;;
41446;SDS011;27185;52.040;4.490;2023-02-14T04:58:24;43.33;;;23.85;;
41446;SDS011;27185;52.040;4.490;2023-02-14T05:01:10;44.45;;;23.77;;
41446;SDS011;27185;52.040;4.490;2023-02-14T05:03:55;46.25;;;25.30;;
41446;SDS011;27185;52.040;4.490;2023-02-14T05:06:41;45.75;;;24.52;;
41446;SDS011;27185;52.040;4.490;2023-02-14T05:09:27;40.10;;;22.70;;
41446;SDS011;27185;52.040;4.490;2023-02-14T05:12:14;43.03;;;22.65;;
41446;SDS011;27185;52.040;4.490;2023-02-14T05:15:00;38.85;;;22.45;;
41446;SDS011;27185;52.040;4.490;2023-02-14T05:17:45;40.10;;;21.92;;
41446;SDS011;27185;52.040;4.490;2023-02-14T05:20:31;41.92;;;21.42;;
41446;SDS011;27185;52.040;4.490;2023-02-14T05:23:17;40.38;;;22.00;;
41446;SDS011;27185;52.040;4.490;2023-02-14T05:26:03;43.40;;;22.90;;
41446;SDS011;27185;52.040;4.490;2023-02-14T05:28:49;41.55;;;23.00;;
41446;SDS011;27185;52.040;4.490;2023-02-14T05:31:35;38.47;;;22.58;;
41446;SDS011;27185;52.040;4.490;2023-02-14T05:34:20;38.10;;;21.40;;
41446;SDS011;27185;52.040;4.490;2023-02-14T05:37:06;41.13;;;20.40;;
41446;SDS011;27185;52.040;4.490;2023-02-14T05:39:52;37.83;;;20.65;;
41446;SDS011;27185;52.040;4.490;2023-02-14T05:42:37;38.72;;;21.00;;
41446;SDS011;27185;52.040;4.490;2023-02-14T05:45:24;33.78;;;18.55;;
41446;SDS011;27185;52.040;4.490;2023-02-14T05:48:10;35.30;;;20.15;;
41446;SDS011;27185;52.040;4.490;2023-02-14T05:51:03;34.17;;;19.40;;
41446;SDS011;27185;52.040;4.490;2023-02-14T05:53:49;31.95;;;17.60;;
41446;SDS011;27185;52.040;4.490;2023-02-14T05:56:35;35.40;;;19.38;;
41446;SDS011;27185;52.040;4.490;2023-02-14T05:59:20;33.72;;;19.08;;
41446;SDS011;27185;52.040;4.490;2023-02-14T06:02:06;36.25;;;19.30;;
41446;SDS011;27185;52.040;4.490;2023-02-14T06:04:51;40.47;;;21.27;;
41446;SDS011;27185;52.040;4.490;2023-02-14T06:07:37;39.72;;;20.73;;
41446;SDS011;27185;52.040;4.490;2023-02-14T06:10:23;39.45;;;21.33;;
41446;SDS011;27185;52.040;4.490;2023-02-14T06:13:10;38.85;;;20.38;;
41446;SDS011;27185;52.040;4.490;2023-02-14T06:15:55;33.72;;;19.80;;
41446;SDS011;27185;52.040;4.490;2023-02-14T06:18:41;34.85;;;19.30;;
41446;SDS011;27185;52.040;4.490;2023-02-14T06:21:27;33.72;;;18.35;;
41446;SDS011;27185;52.040;4.490;2023-02-14T06:24:12;35.60;;;18.98;;
41446;SDS011;27185;52.040;4.490;2023-02-14T06:26:58;34.50;;;18.63;;
41446;SDS011;27185;52.040;4.490;2023-02-14T06:29:45;30.90;;;18.13;;
41446;SDS011;27185;52.040;4.490;2023-02-14T06:32:30;32.70;;;19.13;;
41446;SDS011;27185;52.040;4.490;2023-02-14T06:35:16;28.17;;;17.52;;
41446;SDS011;27185;52.040;4.490;2023-02-14T06:38:02;30.15;;;16.67;;
41446;SDS011;27185;52.040;4.490;2023-02-14T06:40:47;28.52;;;16.95;;
41446;SDS011;27185;52.040;4.490;2023-02-14T06:43:33;31.75;;;19.05;;
41446;SDS011;27185;52.040;4.490;2023-02-14T06:46:19;31.65;;;18.45;;
41446;SDS011;27185;52.040;4.490;2023-02-14T06:49:05;31.83;;;18.25;;
41446;SDS011;27185;52.040;4.490;2023-02-14T06:51:50;28.08;;;17.42;;
41446;SDS011;27185;52.040;4.490;2023-02-14T06:54:36;31.17;;;18.20;;
41446;SDS011;27185;52.040;4.490;2023-02-14T06:57:21;29.38;;;16.67;;
41446;SDS011;27185;52.040;4.490;2023-02-14T07:00:07;26.75;;;16.55;;
41446;SDS011;27185;52.040;4.490;2023-02-14T07:02:54;26.00;;;16.55;;
41446;SDS011;27185;52.040;4.490;2023-02-14T07:05:39;26.80;;;17.20;;
41446;SDS011;27185;52.040;4.490;2023-02-14T07:08:25;26.83;;;16.70;;
41446;SDS011;27185;52.040;4.490;2023-02-14T07:11:11;26.98;;;16.15;;
41446;SDS011;27185;52.040;4.490;2023-02-14T07:13:56;25.77;;;15.45;;
41446;SDS011;27185;52.040;4.490;2023-02-14T07:16:44;25.80;;;16.55;;
41446;SDS011;27185;52.040;4.490;2023-02-14T07:19:30;28.95;;;16.83;;
41446;SDS011;27185;52.040;4.490;2023-02-14T07:22:15;25.65;;;16.63;;
41446;SDS011;27185;52.040;4.490;2023-02-14T07:25:01;25.33;;;16.20;;
41446;SDS011;27185;52.040;4.490;2023-02-14T07:27:48;24.88;;;15.98;;
41446;SDS011;27185;52.040;4.490;2023-02-14T07:30:33;24.25;;;15.85;;
41446;SDS011;27185;52.040;4.490;2023-02-14T07:33:19;24.20;;;16.27;;
41446;SDS011;27185;52.040;4.490;2023-02-14T07:36:05;23.52;;;15.98;;
41446;SDS011;27185;52.040;4.490;2023-02-14T07:38:51;25.15;;;16.17;;
41446;SDS011;27185;52.040;4.490;2023-02-14T07:41:39;25.83;;;15.75;;
41446;SDS011;27185;52.040;4.490;2023-02-14T07:44:24;27.67;;;16.92;;
41446;SDS011;27185;52.040;4.490;2023-02-14T07:47:10;22.70;;;15.05;;
41446;SDS011;27185;52.040;4.490;2023-02-14T07:49:56;26.77;;;16.42;;
41446;SDS011;27185;52.040;4.490;2023-02-14T07:52:42;27.42;;;16.20;;
41446;SDS011;27185;52.040;4.490;2023-02-14T07:55:28;37.47;;;19.52;;
41446;SDS011;27185;52.040;4.490;2023-02-14T07:58:14;40.47;;;23.08;;
41446;SDS011;27185;52.040;4.490;2023-02-14T08:00:59;34.92;;;19.00;;
41446;SDS011;27185;52.040;4.490;2023-02-14T08:03:45;35.88;;;19.48;;
41446;SDS011;27185;52.040;4.490;2023-02-14T08:09:19;25.20;;;15.52;;
41446;SDS011;27185;52.040;4.490;2023-02-14T08:12:11;26.30;;;17.10;;
41446;SDS011;27185;52.040;4.490;2023-02-14T08:15:15;29.67;;;17.63;;
41446;SDS011;27185;52.040;4.490;2023-02-14T08:18:20;34.83;;;18.60;;
41446;SDS011;27185;52.040;4.490;2023-02-14T08:21:08;28.63;;;18.20;;
41446;SDS011;27185;52.040;4.490;2023-02-14T08:23:54;33.22;;;19.27;;
41446;SDS011;27185;52.040;4.490;2023-02-14T08:26:40;29.48;;;17.98;;
41446;SDS011;27185;52.040;4.490;2023-02-14T08:29:26;33.78;;;19.67;;
41446;SDS011;27185;52.040;4.490;2023-02-14T08:32:11;34.75;;;19.88;;
41446;SDS011;27185;52.040;4.490;2023-02-14T08:34:58;34.22;;;20.80;;
41446;SDS011;27185;52.040;4.490;2023-02-14T08:37:44;36.80;;;21.02;;
41446;SDS011;27185;52.040;4.490;2023-02-14T08:40:30;37.97;;;22.63;;
41446;SDS011;27185;52.040;4.490;2023-02-14T08:43:15;38.10;;;23.92;;
41446;SDS011;27185;52.040;4.490;2023-02-14T08:46:01;39.17;;;23.52;;
41446;SDS011;27185;52.040;4.490;2023-02-14T08:48:47;38.67;;;24.65;;
41446;SDS011;27185;52.040;4.490;2023-02-14T08:51:34;41.38;;;23.50;;
41446;SDS011;27185;52.040;4.490;2023-02-14T08:54:19;39.20;;;23.75;;
41446;SDS011;27185;52.040;4.490;2023-02-14T08:57:05;43.53;;;25.90;;
41446;SDS011;27185;52.040;4.490;2023-02-14T08:59:50;37.70;;;23.75;;
41446;SDS011;27185;52.040;4.490;2023-02-14T09:02:36;40.55;;;25.17;;
41446;SDS011;27185;52.040;4.490;2023-02-14T09:05:21;41.22;;;24.20;;
41446;SDS011;27185;52.040;4.490;2023-02-14T09:08:07;44.13;;;25.17;;
41446;SDS011;27185;52.040;4.490;2023-02-14T09:10:53;45.00;;;27.40;;
41446;SDS011;27185;52.040;4.490;2023-02-14T09:13:38;44.45;;;28.05;;
41446;SDS011;27185;52.040;4.490;2023-02-14T09:16:25;44.75;;;28.00;;
41446;SDS011;27185;52.040;4.490;2023-02-14T09:19:10;50.42;;;29.08;;
41446;SDS011;27185;52.040;4.490;2023-02-14T09:21:56;53.25;;;30.45;;
41446;SDS011;27185;52.040;4.490;2023-02-14T09:24:44;44.58;;;29.17;;
41446;SDS011;27185;52.040;4.490;2023-02-14T09:27:30;56.42;;;30.75;;
41446;SDS011;27185;52.040;4.490;2023-02-14T09:30:16;81.53;;;44.85;;
41446;SDS011;27185;52.040;4.490;2023-02-14T09:33:02;81.28;;;46.30;;
41446;SDS011;27185;52.040;4.490;2023-02-14T09:35:49;74.25;;;40.58;;
41446;SDS011;27185;52.040;4.490;2023-02-14T09:38:34;71.63;;;39.70;;
41446;SDS011;27185;52.040;4.490;2023-02-14T09:44:26;83.95;;;47.13;;
41446;SDS011;27185;52.040;4.490;2023-02-14T09:47:35;89.38;;;47.15;;
41446;SDS011;27185;52.040;4.490;2023-02-14T09:54:41;82.93;;;45.72;;
41446;SDS011;27185;52.040;4.490;2023-02-14T09:56:57;94.28;;;51.30;;
41446;SDS011;27185;52.040;4.490;2023-02-14T10:00:09;93.97;;;51.35;;
41446;SDS011;27185;52.040;4.490;2023-02-14T10:06:00;92.63;;;53.42;;
41446;SDS011;27185;52.040;4.490;2023-02-14T10:08:54;85.63;;;50.25;;
41446;SDS011;27185;52.040;4.490;2023-02-14T10:11:42;78.65;;;44.28;;
41446;SDS011;27185;52.040;4.490;2023-02-14T10:14:32;76.03;;;43.72;;
41446;SDS011;27185;52.040;4.490;2023-02-14T10:17:32;66.85;;;40.45;;
41446;SDS011;27185;52.040;4.490;2023-02-14T10:20:33;62.65;;;37.45;;
41446;SDS011;27185;52.040;4.490;2023-02-14T10:23:40;67.82;;;39.75;;
41446;SDS011;27185;52.040;4.490;2023-02-14T10:26:34;64.45;;;39.78;;
41446;SDS011;27185;52.040;4.490;2023-02-14T10:29:22;65.15;;;38.33;;
41446;SDS011;27185;52.040;4.490;2023-02-14T10:32:11;58.28;;;36.00;;
41446;SDS011;27185;52.040;4.490;2023-02-14T10:34:59;54.28;;;33.17;;
41446;SDS011;27185;52.040;4.490;2023-02-14T10:53:35;63.35;;;39.17;;
41446;SDS011;27185;52.040;4.490;2023-02-14T10:56:32;56.97;;;34.65;;
41446;SDS011;27185;52.040;4.490;2023-02-14T10:59:22;65.03;;;39.30;;
41446;SDS011;27185;52.040;4.490;2023-02-14T11:02:15;55.92;;;35.40;;
41446;SDS011;27185;52.040;4.490;2023-02-14T11:05:02;54.58;;;33.63;;
41446;SDS011;27185;52.040;4.490;2023-02-14T11:07:49;53.65;;;34.28;;
41446;SDS011;27185;52.040;4.490;2023-02-14T11:10:35;55.15;;;34.97;;
41446;SDS011;27185;52.040;4.490;2023-02-14T11:13:30;54.70;;;34.55;;
41446;SDS011;27185;52.040;4.490;2023-02-14T11:16:33;55.85;;;34.55;;
41446;SDS011;27185;52.040;4.490;2023-02-14T11:22:13;57.05;;;35.38;;
41446;SDS011;27185;52.040;4.490;2023-02-14T11:25:18;49.13;;;31.23;;
41446;SDS011;27185;52.040;4.490;2023-02-14T11:28:07;47.10;;;30.58;;
41446;SDS011;27185;52.040;4.490;2023-02-14T11:31:00;50.78;;;32.95;;
41446;SDS011;27185;52.040;4.490;2023-02-14T11:33:46;54.05;;;34.55;;
41446;SDS011;27185;52.040;4.490;2023-02-14T11:36:39;56.72;;;35.22;;
41446;SDS011;27185;52.040;4.490;2023-02-14T11:39:31;51.10;;;33.05;;
41446;SDS011;27185;52.040;4.490;2023-02-14T11:42:40;55.40;;;34.05;;
41446;SDS011;27185;52.040;4.490;2023-02-14T11:45:35;55.40;;;36.30;;
41446;SDS011;27185;52.040;4.490;2023-02-14T11:48:24;55.25;;;34.35;;
41446;SDS011;27185;52.040;4.490;2023-02-14T11:51:12;53.47;;;34.92;;
41446;SDS011;27185;52.040;4.490;2023-02-14T11:53:59;54.17;;;33.55;;
41446;SDS011;27185;52.040;4.490;2023-02-14T11:56:52;51.95;;;32.95;;
41446;SDS011;27185;52.040;4.490;2023-02-14T11:59:40;47.38;;;31.15;;
41446;SDS011;27185;52.040;4.490;2023-02-14T12:02:38;49.28;;;32.13;;
41446;SDS011;27185;52.040;4.490;2023-02-14T12:05:32;48.05;;;31.48;;
41446;SDS011;27185;52.040;4.490;2023-02-14T12:08:25;49.35;;;30.58;;
41446;SDS011;27185;52.040;4.490;2023-02-14T12:11:20;48.10;;;29.83;;
41446;SDS011;27185;52.040;4.490;2023-02-14T12:14:08;45.67;;;29.10;;
41446;SDS011;27185;52.040;4.490;2023-02-14T12:20:11;42.00;;;27.23;;
41446;SDS011;27185;52.040;4.490;2023-02-14T12:23:02;40.08;;;26.73;;
41446;SDS011;27185;52.040;4.490;2023-02-14T12:25:58;44.10;;;30.00;;
41446;SDS011;27185;52.040;4.490;2023-02-14T12:32:34;45.53;;;30.23;;
41446;SDS011;27185;52.040;4.490;2023-02-14T12:38:29;40.47;;;26.25;;
41446;SDS011;27185;52.040;4.490;2023-02-14T12:47:45;41.47;;;26.73;;
41446;SDS011;27185;52.040;4.490;2023-02-14T12:53:44;38.58;;;25.88;;
41446;SDS011;27185;52.040;4.490;2023-02-14T12:56:51;43.67;;;29.00;;
41446;SDS011;27185;52.040;4.490;2023-02-14T13:05:59;32.47;;;22.73;;
41446;SDS011;27185;52.040;4.490;2023-02-14T13:21:21;33.67;;;24.00;;
41446;SDS011;27185;52.040;4.490;2023-02-14T13:24:15;33.15;;;22.70;;
41446;SDS011;27185;52.040;4.490;2023-02-14T13:27:15;29.52;;;20.77;;
41446;SDS011;27185;52.040;4.490;2023-02-14T13:30:29;36.40;;;24.48;;
41446;SDS011;27185;52.040;4.490;2023-02-14T13:33:23;37.55;;;24.92;;
41446;SDS011;27185;52.040;4.490;2023-02-14T13:36:11;32.55;;;23.48;;
41446;SDS011;27185;52.040;4.490;2023-02-14T13:38:58;34.13;;;22.40;;
41446;SDS011;27185;52.040;4.490;2023-02-14T13:41:45;34.13;;;23.40;;
41446;SDS011;27185;52.040;4.490;2023-02-14T13:47:26;34.03;;;24.23;;
41446;SDS011;27185;52.040;4.490;2023-02-14T13:50:18;31.23;;;24.42;;
41446;SDS011;27185;52.040;4.490;2023-02-14T13:53:10;37.60;;;24.73;;
41446;SDS011;27185;52.040;4.490;2023-02-14T13:55:56;36.30;;;25.83;;
41446;SDS011;27185;52.040;4.490;2023-02-14T14:01:49;33.45;;;24.65;;
41446;SDS011;27185;52.040;4.490;2023-02-14T14:04:35;35.97;;;24.15;;
41446;SDS011;27185;52.040;4.490;2023-02-14T14:07:26;38.60;;;25.70;;
41446;SDS011;27185;52.040;4.490;2023-02-14T14:10:20;37.33;;;23.40;;
41446;SDS011;27185;52.040;4.490;2023-02-14T14:22:08;37.15;;;27.27;;
41446;SDS011;27185;52.040;4.490;2023-02-14T14:24:59;36.05;;;24.30;;
41446;SDS011;27185;52.040;4.490;2023-02-14T14:27:47;31.67;;;23.42;;
41446;SDS011;27185;52.040;4.490;2023-02-14T14:30:34;38.15;;;27.25;;
41446;SDS011;27185;52.040;4.490;2023-02-14T14:33:33;42.33;;;28.85;;
41446;SDS011;27185;52.040;4.490;2023-02-14T14:36:21;40.42;;;25.88;;
41446;SDS011;27185;52.040;4.490;2023-02-14T14:39:08;34.15;;;25.23;;
41446;SDS011;27185;52.040;4.490;2023-02-14T14:41:54;34.28;;;23.85;;
41446;SDS011;27185;52.040;4.490;2023-02-14T14:45:20;39.80;;;26.63;;
41446;SDS011;27185;52.040;4.490;2023-02-14T14:48:09;41.28;;;28.50;;
41446;SDS011;27185;52.040;4.490;2023-02-14T14:50:58;35.88;;;25.58;;
41446;SDS011;27185;52.040;4.490;2023-02-14T14:53:48;38.75;;;27.38;;
41446;SDS011;27185;52.040;4.490;2023-02-14T14:56:52;37.78;;;27.17;;
41446;SDS011;27185;52.040;4.490;2023-02-14T14:59:41;37.03;;;25.80;;
41446;SDS011;27185;52.040;4.490;2023-02-14T15:02:26;40.22;;;26.80;;
41446;SDS011;27185;52.040;4.490;2023-02-14T15:05:18;40.60;;;27.88;;
41446;SDS011;27185;52.040;4.490;2023-02-14T15:08:19;41.88;;;26.52;;
41446;SDS011;27185;52.040;4.490;2023-02-14T15:11:21;40.53;;;27.38;;
41446;SDS011;27185;52.040;4.490;2023-02-14T15:14:28;39.70;;;27.65;;
41446;SDS011;27185;52.040;4.490;2023-02-14T15:17:21;41.60;;;28.80;;
41446;SDS011;27185;52.040;4.490;2023-02-14T15:20:15;45.53;;;28.73;;
41446;SDS011;27185;52.040;4.490;2023-02-14T15:23:03;38.10;;;27.42;;
41446;SDS011;27185;52.040;4.490;2023-02-14T15:25:49;39.17;;;27.05;;
41446;SDS011;27185;52.040;4.490;2023-02-14T15:28:36;39.63;;;25.27;;
41446;SDS011;27185;52.040;4.490;2023-02-14T15:31:24;43.35;;;28.30;;
41446;SDS011;27185;52.040;4.490;2023-02-14T15:34:14;43.50;;;27.58;;
41446;SDS011;27185;52.040;4.490;2023-02-14T15:37:00;42.08;;;28.17;;
41446;SDS011;27185;52.040;4.490;2023-02-14T15:39:50;39.03;;;25.75;;
41446;SDS011;27185;52.040;4.490;2023-02-14T15:42:39;43.15;;;27.73;;
41446;SDS011;27185;52.040;4.490;2023-02-14T15:45:29;40.30;;;27.08;;
41446;SDS011;27185;52.040;4.490;2023-02-14T15:48:18;37.50;;;27.63;;
41446;SDS011;27185;52.040;4.490;2023-02-14T15:51:25;35.70;;;25.92;;
41446;SDS011;27185;52.040;4.490;2023-02-14T15:54:30;40.05;;;26.63;;
41446;SDS011;27185;52.040;4.490;2023-02-14T16:00:15;35.80;;;23.02;;
41446;SDS011;27185;52.040;4.490;2023-02-14T16:03:05;36.00;;;24.60;;
41446;SDS011;27185;52.040;4.490;2023-02-14T16:05:54;39.55;;;26.98;;
41446;SDS011;27185;52.040;4.490;2023-02-14T16:08:40;39.30;;;25.77;;
41446;SDS011;27185;52.040;4.490;2023-02-14T16:11:30;40.70;;;26.65;;
41446;SDS011;27185;52.040;4.490;2023-02-14T16:17:14;37.75;;;25.05;;
41446;SDS011;27185;52.040;4.490;2023-02-14T16:20:18;37.03;;;25.80;;
41446;SDS011;27185;52.040;4.490;2023-02-14T16:23:17;38.78;;;26.35;;
41446;SDS011;27185;52.040;4.490;2023-02-14T16:26:06;38.63;;;25.27;;
41446;SDS011;27185;52.040;4.490;2023-02-14T16:28:52;43.25;;;26.27;;
41446;SDS011;27185;52.040;4.490;2023-02-14T16:31:39;40.80;;;26.33;;
41446;SDS011;27185;52.040;4.490;2023-02-14T16:34:28;39.67;;;25.85;;
41446;SDS011;27185;52.040;4.490;2023-02-14T16:37:24;39.53;;;25.90;;
41446;SDS011;27185;52.040;4.490;2023-02-14T16:40:15;35.95;;;24.33;;
41446;SDS011;27185;52.040;4.490;2023-02-14T16:43:01;38.88;;;25.10;;
41446;SDS011;27185;52.040;4.490;2023-02-14T16:45:48;39.97;;;25.40;;
41446;SDS011;27185;52.040;4.490;2023-02-14T16:48:34;44.22;;;25.80;;
41446;SDS011;27185;52.040;4.490;2023-02-14T16:51:20;40.80;;;25.80;;
41446;SDS011;27185;52.040;4.490;2023-02-14T16:54:10;42.58;;;26.00;;
41446;SDS011;27185;52.040;4.490;2023-02-14T16:57:02;36.35;;;24.08;;
41446;SDS011;27185;52.040;4.490;2023-02-14T16:59:48;41.20;;;26.20;;
41446;SDS011;27185;52.040;4.490;2023-02-14T17:02:34;42.75;;;27.05;;
41446;SDS011;27185;52.040;4.490;2023-02-14T17:05:20;36.58;;;24.63;;
41446;SDS011;27185;52.040;4.490;2023-02-14T17:08:06;39.00;;;24.67;;
41446;SDS011;27185;52.040;4.490;2023-02-14T17:10:55;42.33;;;27.85;;
41446;SDS011;27185;52.040;4.490;2023-02-14T17:13:41;46.38;;;28.17;;
41446;SDS011;27185;52.040;4.490;2023-02-14T17:16:29;44.33;;;28.75;;
41446;SDS011;27185;52.040;4.490;2023-02-14T17:19:15;41.90;;;26.75;;
41446;SDS011;27185;52.040;4.490;2023-02-14T17:22:01;45.03;;;27.00;;
41446;SDS011;27185;52.040;4.490;2023-02-14T17:24:48;45.92;;;26.88;;
41446;SDS011;27185;52.040;4.490;2023-02-14T17:27:34;42.10;;;27.08;;
41446;SDS011;27185;52.040;4.490;2023-02-14T17:30:19;43.00;;;27.65;;
41446;SDS011;27185;52.040;4.490;2023-02-14T17:33:05;43.72;;;26.45;;
41446;SDS011;27185;52.040;4.490;2023-02-14T17:35:51;42.05;;;27.92;;
41446;SDS011;27185;52.040;4.490;2023-02-14T17:38:37;43.65;;;26.95;;
41446;SDS011;27185;52.040;4.490;2023-02-14T17:41:24;43.42;;;27.80;;
41446;SDS011;27185;52.040;4.490;2023-02-14T17:44:10;45.13;;;28.17;;
41446;SDS011;27185;52.040;4.490;2023-02-14T17:46:57;46.85;;;29.35;;
41446;SDS011;27185;52.040;4.490;2023-02-14T17:49:45;48.65;;;29.38;;
41446;SDS011;27185;52.040;4.490;2023-02-14T17:52:31;48.53;;;29.08;;
41446;SDS011;27185;52.040;4.490;2023-02-14T17:55:17;56.03;;;32.88;;
41446;SDS011;27185;52.040;4.490;2023-02-14T17:58:02;48.97;;;30.35;;
41446;SDS011;27185;52.040;4.490;2023-02-14T18:00:48;51.50;;;30.95;;
41446;SDS011;27185;52.040;4.490;2023-02-14T18:03:34;55.80;;;32.95;;
41446;SDS011;27185;52.040;4.490;2023-02-14T18:06:20;56.50;;;34.45;;
41446;SDS011;27185;52.040;4.490;2023-02-14T18:09:06;51.28;;;32.35;;
41446;SDS011;27185;52.040;4.490;2023-02-14T18:11:52;59.05;;;33.15;;
41446;SDS011;27185;52.040;4.490;2023-02-14T18:14:37;54.20;;;32.63;;
41446;SDS011;27185;52.040;4.490;2023-02-14T18:17:23;58.30;;;34.60;;
41446;SDS011;27185;52.040;4.490;2023-02-14T18:20:09;54.33;;;32.75;;
41446;SDS011;27185;52.040;4.490;2023-02-14T18:22:55;58.13;;;33.35;;
41446;SDS011;27185;52.040;4.490;2023-02-14T18:25:40;54.53;;;34.22;;
41446;SDS011;27185;52.040;4.490;2023-02-14T18:28:33;56.08;;;34.53;;
41446;SDS011;27185;52.040;4.490;2023-02-14T18:31:20;56.13;;;34.85;;
41446;SDS011;27185;52.040;4.490;2023-02-14T18:34:05;59.90;;;34.53;;
41446;SDS011;27185;52.040;4.490;2023-02-14T18:36:51;56.78;;;34.72;;
41446;SDS011;27185;52.040;4.490;2023-02-14T18:39:37;57.00;;;34.78;;
41446;SDS011;27185;52.040;4.490;2023-02-14T18:42:23;58.60;;;35.13;;